createdAt,value
2018-08-03T00:00:30.619Z,23.80
2018-08-03T00:03:01.114Z,23.70
2018-08-03T00:05:31.403Z,23.80
2018-08-03T00:13:01.661Z,23.80
2018-08-03T00:15:31.838Z,23.70
2018-08-03T00:18:02.288Z,23.80
2018-08-03T00:20:32.512Z,23.60
2018-08-03T00:25:35.053Z,23.60
2018-08-03T00:30:35.363Z,23.80
2018-08-03T00:33:05.679Z,23.50
2018-08-03T00:39:02.452Z,23.40
2018-08-03T00:41:32.736Z,23.50
2018-08-03T00:44:02.993Z,23.60
2018-08-03T00:46:33.286Z,23.80
2018-08-03T00:49:03.540Z,23.40
2018-08-03T00:51:34.596Z,23.50
2018-08-03T00:54:05.033Z,23.50
2018-08-03T00:56:35.481Z,23.50
2018-08-03T00:59:05.870Z,23.30
2018-08-03T01:01:36.213Z,23.30
2018-08-03T01:04:06.562Z,23.40
2018-08-03T01:06:36.904Z,23.50
2018-08-03T01:09:11.405Z,23.30
2018-08-03T01:11:41.895Z,23.30
2018-08-03T01:14:12.186Z,23.20
2018-08-03T01:21:45.590Z,23.70
2018-08-03T01:26:45.790Z,23.30
2018-08-03T01:29:16.069Z,23.40
2018-08-03T01:34:16.557Z,23.50
2018-08-03T01:36:46.832Z,23.40
2018-08-03T01:39:17.220Z,23.80
2018-08-03T01:41:47.403Z,23.40
2018-08-03T01:46:48.258Z,23.40
2018-08-03T01:54:18.314Z,23.90
2018-08-03T01:59:18.553Z,23.40
2018-08-03T02:09:18.806Z,23.30
2018-08-03T02:11:49.047Z,23.20
2018-08-03T02:19:20.165Z,23.30
2018-08-03T02:24:20.361Z,23.20
2018-08-03T02:29:20.524Z,23.00
2018-08-03T02:31:50.746Z,22.90
2018-08-03T02:34:20.953Z,22.80
2018-08-03T02:39:21.708Z,22.90
2018-08-03T02:41:51.932Z,22.90
2018-08-03T02:44:23.007Z,23.00
2018-08-03T02:49:23.193Z,22.90
2018-08-03T02:54:23.841Z,22.80
2018-08-03T02:59:23.959Z,22.80
2018-08-03T03:01:54.394Z,22.90
2018-08-03T03:14:24.835Z,22.40
2018-08-03T03:16:55.109Z,22.30
2018-08-03T03:19:25.364Z,22.20
2018-08-03T03:21:55.973Z,22.40
2018-08-03T03:26:56.260Z,22.60
2018-08-03T03:29:26.970Z,22.70
2018-08-03T03:31:57.232Z,22.40
2018-08-03T03:36:57.456Z,22.30
2018-08-03T03:39:27.878Z,22.80
2018-08-03T03:41:59.269Z,22.50
2018-08-03T03:44:29.532Z,22.30
2018-08-03T03:49:29.870Z,22.40
2018-08-03T03:52:00.269Z,22.40
2018-08-03T04:02:00.678Z,22.30
2018-08-03T04:07:00.915Z,22.50
2018-08-03T04:09:31.085Z,22.10
2018-08-03T04:12:01.317Z,22.60
2018-08-03T04:17:02.523Z,22.50
2018-08-03T04:22:08.903Z,22.40
2018-08-03T04:24:39.363Z,22.50
2018-08-03T04:27:09.648Z,22.50
2018-08-03T04:34:42.107Z,22.70
2018-08-03T04:37:12.502Z,22.60
2018-08-03T04:42:12.710Z,22.70
2018-08-03T04:44:43.012Z,22.80
2018-08-03T04:47:13.277Z,22.80
2018-08-03T04:49:43.835Z,22.70
2018-08-03T04:52:14.175Z,22.50
2018-08-03T04:54:44.356Z,22.70
2018-08-03T04:57:14.512Z,22.80
2018-08-03T04:59:44.791Z,22.90
2018-08-03T05:02:15.093Z,22.90
2018-08-03T05:04:46.565Z,22.80
2018-08-03T05:09:46.484Z,22.90
2018-08-03T05:14:46.552Z,23.10
2018-08-03T05:17:16.865Z,23.10
2018-08-03T05:19:47.152Z,23.20
2018-08-03T05:22:17.447Z,23.20
2018-08-03T05:24:47.736Z,23.30
2018-08-03T05:27:18.519Z,23.40
2018-08-03T05:29:48.814Z,23.50
2018-08-03T05:32:19.056Z,23.50
2018-08-03T05:34:49.254Z,23.60
2018-08-03T05:37:19.433Z,23.80
2018-08-03T05:42:20.454Z,23.70
2018-08-03T05:47:21.461Z,23.40
2018-08-03T05:49:51.737Z,23.80
2018-08-03T05:52:22.014Z,24.20
2018-08-03T05:57:22.311Z,24.20
2018-08-03T05:59:52.471Z,24.60
2018-08-03T06:02:22.766Z,24.70
2018-08-03T06:07:23.041Z,25.70
2018-08-03T06:09:53.334Z,25.10
2018-08-03T06:12:23.541Z,26.10
2018-08-03T06:14:53.855Z,26.30
2018-08-03T06:19:53.952Z,25.80
2018-08-03T06:24:54.223Z,26.00
2018-08-03T06:27:24.408Z,26.70
2018-08-03T06:29:54.574Z,27.00
2018-08-03T06:32:24.673Z,26.50
2018-08-03T06:34:54.822Z,26.80
2018-08-03T06:37:25.019Z,27.80
2018-08-03T06:39:55.165Z,27.70
2018-08-03T06:42:29.055Z,27.50
2018-08-03T06:44:59.294Z,27.90
2018-08-03T06:47:30.047Z,27.40
2018-08-03T06:52:32.481Z,27.30
2018-08-03T06:55:02.672Z,27.60
2018-08-03T06:57:32.801Z,27.60
2018-08-03T07:00:02.955Z,28.10
2018-08-03T07:02:33.035Z,28.40
2018-08-03T07:05:03.158Z,28.80
2018-08-03T07:12:34.227Z,29.80
2018-08-03T07:15:04.560Z,29.90
2018-08-03T07:20:39.180Z,29.40
2018-08-03T07:23:09.437Z,29.60
2018-08-03T07:25:39.602Z,29.70
2018-08-03T07:28:09.855Z,29.20
2018-08-03T07:33:09.672Z,29.20
2018-08-03T07:35:40.202Z,29.30
2018-08-03T07:43:10.981Z,29.70
2018-08-03T07:45:41.188Z,29.50
2018-08-03T07:48:11.452Z,29.90
2018-08-03T07:50:41.771Z,29.90
2018-08-03T07:53:12.064Z,29.80
2018-08-03T07:55:42.342Z,30.00
2018-08-03T07:58:12.552Z,30.70
2018-08-03T08:00:42.752Z,29.90
2018-08-03T08:03:13.013Z,30.10
2018-08-03T08:05:43.211Z,29.80
2018-08-03T08:08:14.053Z,29.50
2018-08-03T08:15:43.976Z,30.00
2018-08-03T08:18:14.151Z,30.60
2018-08-03T08:25:44.015Z,30.00
2018-08-03T08:33:16.870Z,30.40
2018-08-03T08:35:47.110Z,30.00
2018-08-03T08:38:17.351Z,29.70
2018-08-03T08:40:48.634Z,30.60
2018-08-03T08:45:49.472Z,31.20
2018-08-03T08:55:49.279Z,30.80
2018-08-03T08:58:19.543Z,29.90
2018-08-03T09:03:19.629Z,30.10
2018-08-03T09:05:49.905Z,30.40
2018-08-03T09:08:20.182Z,30.50
2018-08-03T09:10:50.395Z,30.10
2018-08-03T09:13:24.570Z,31.50
2018-08-03T09:15:54.982Z,30.80
2018-08-03T09:23:25.120Z,31.40
2018-08-03T09:28:26.649Z,30.50
2018-08-03T09:30:57.610Z,30.40
2018-08-03T09:33:28.750Z,29.90
2018-08-03T09:35:58.967Z,30.60
2018-08-03T09:38:29.780Z,29.90
2018-08-03T09:41:00.004Z,30.80
2018-08-03T09:43:31.558Z,29.60
2018-08-03T09:46:01.737Z,30.10
2018-08-03T09:51:01.949Z,30.10
2018-08-03T09:56:01.955Z,30.00
2018-08-03T10:01:07.479Z,29.90
2018-08-03T10:03:37.763Z,30.50
2018-08-03T10:06:09.547Z,29.50
2018-08-03T10:08:39.933Z,29.70
2018-08-03T10:13:40.471Z,29.30
2018-08-03T10:18:40.539Z,29.70
2018-08-03T10:21:10.855Z,29.50
2018-08-03T10:23:41.204Z,29.50
2018-08-03T10:26:13.293Z,29.70
2018-08-03T10:28:43.898Z,29.40
2018-08-03T10:38:44.390Z,29.70
2018-08-03T10:41:14.844Z,30.70
2018-08-03T10:48:45.224Z,31.20
2018-08-03T10:56:15.239Z,30.20
2018-08-03T11:01:15.666Z,31.10
2018-08-03T11:03:45.967Z,30.80
2018-08-03T11:06:16.263Z,30.40
2018-08-03T11:11:16.996Z,30.30
2018-08-03T11:13:47.419Z,30.40
2018-08-03T11:18:47.525Z,30.40
2018-08-03T11:26:17.495Z,30.90
2018-08-03T11:28:47.627Z,30.60
2018-08-03T11:31:18.018Z,30.20
2018-08-03T11:38:48.173Z,30.90
2018-08-03T11:41:19.224Z,30.60
2018-08-03T11:43:50.440Z,30.50
2018-08-03T11:48:50.800Z,31.60
2018-08-03T11:51:21.153Z,30.60
2018-08-03T11:53:51.428Z,30.70
2018-08-03T11:56:21.716Z,30.10
2018-08-03T12:01:21.925Z,30.70
2018-08-03T12:03:52.196Z,31.70
2018-08-03T12:06:22.591Z,30.70
2018-08-03T12:08:53.019Z,31.90
2018-08-03T12:11:23.323Z,32.30
2018-08-03T12:13:53.564Z,32.40
2018-08-03T12:18:53.828Z,31.30
2018-08-03T12:21:23.978Z,31.60
2018-08-03T12:23:54.363Z,31.40
2018-08-03T12:26:24.680Z,31.30
2018-08-03T12:28:54.926Z,31.30
2018-08-03T12:31:25.207Z,31.80
2018-08-03T12:33:55.452Z,32.10
2018-08-03T12:36:25.666Z,31.30
2018-08-03T12:38:56.039Z,32.10
2018-08-03T12:41:26.355Z,32.70
2018-08-03T12:43:56.599Z,31.30
2018-08-03T12:48:56.693Z,31.40
2018-08-03T12:51:27.092Z,31.30
2018-08-03T12:53:59.458Z,31.50
2018-08-03T12:56:29.778Z,32.10
2018-08-03T12:59:00.070Z,31.30
2018-08-03T13:01:30.334Z,31.80
2018-08-03T13:09:01.364Z,31.10
2018-08-03T13:14:01.514Z,31.10
2018-08-03T13:16:31.792Z,31.90
2018-08-03T13:19:02.197Z,31.00
2018-08-03T13:24:05.989Z,31.00
2018-08-03T13:26:36.563Z,31.70
2018-08-03T13:29:07.130Z,31.40
2018-08-03T13:34:07.867Z,31.30
2018-08-03T13:36:38.398Z,31.60
2018-08-03T13:39:09.779Z,31.30
2018-08-03T13:44:10.043Z,30.70
2018-08-03T13:46:40.308Z,31.20
2018-08-03T13:49:11.265Z,32.00
2018-08-03T13:51:41.521Z,31.10
2018-08-03T13:54:11.763Z,31.30
2018-08-03T13:56:42.531Z,31.40
2018-08-03T13:59:14.194Z,32.60
2018-08-03T14:02:01.462Z,31.90
2018-08-03T14:04:31.795Z,31.40
2018-08-03T14:07:02.150Z,31.60
2018-08-03T14:09:32.455Z,31.50
2018-08-03T14:14:32.816Z,32.50
2018-08-03T14:17:03.084Z,31.50
2018-08-03T14:19:33.439Z,31.10
2018-08-03T14:22:03.846Z,31.00
2018-08-03T14:27:05.004Z,30.70
2018-08-03T14:34:35.843Z,30.40
2018-08-03T14:37:07.173Z,30.80
2018-08-03T14:39:37.281Z,31.50
2018-08-03T14:42:07.522Z,31.50
2018-08-03T14:44:37.626Z,30.30
2018-08-03T14:49:37.483Z,30.60
2018-08-03T14:52:07.548Z,30.90
2018-08-03T14:54:37.713Z,31.10
2018-08-03T15:02:15.570Z,31.20
2018-08-03T15:04:45.726Z,31.20
2018-08-03T15:07:15.925Z,30.80
2018-08-03T15:09:46.140Z,31.00
2018-08-03T15:12:16.213Z,31.50
2018-08-03T15:14:46.369Z,31.00
2018-08-03T15:17:16.522Z,30.90
2018-08-03T15:19:48.022Z,31.80
2018-08-03T15:24:48.233Z,31.00
2018-08-03T15:27:18.416Z,30.60
2018-08-03T15:29:48.608Z,30.80
2018-08-03T15:34:48.679Z,31.80
2018-08-03T15:37:18.936Z,30.50
2018-08-03T15:39:49.124Z,30.80
2018-08-03T15:42:19.347Z,30.30
2018-08-03T15:47:19.579Z,30.10
2018-08-03T15:52:19.663Z,30.60
2018-08-03T15:54:50.074Z,30.80
2018-08-03T15:59:50.273Z,30.80
2018-08-03T16:02:20.548Z,31.10
2018-08-03T16:09:50.536Z,30.60
2018-08-03T16:12:20.740Z,30.00
2018-08-03T16:14:51.021Z,29.70
2018-08-03T16:17:21.301Z,30.40
2018-08-03T16:22:21.488Z,31.10
2018-08-03T16:24:51.864Z,30.30
2018-08-03T16:27:22.235Z,30.90
2018-08-03T16:29:52.528Z,30.80
2018-08-03T16:32:22.689Z,30.60
2018-08-03T16:34:53.043Z,30.20
2018-08-03T16:39:53.367Z,30.60
2018-08-03T16:42:23.603Z,30.60
2018-08-03T16:44:54.121Z,30.50
2018-08-03T16:47:25.180Z,30.40
2018-08-03T16:49:56.393Z,30.50
2018-08-03T16:54:57.265Z,30.10
2018-08-03T16:57:27.615Z,30.60
2018-08-03T16:59:57.849Z,31.20
2018-08-03T17:02:28.285Z,30.20
2018-08-03T17:04:59.040Z,30.50
2018-08-03T17:07:29.272Z,30.70
2018-08-03T17:09:59.539Z,30.30
2018-08-03T17:12:29.791Z,30.80
2018-08-03T17:15:00.633Z,31.00
2018-08-03T17:17:30.981Z,31.00
2018-08-03T17:20:02.431Z,30.00
2018-08-03T17:22:32.682Z,30.10
2018-08-03T17:25:03.105Z,30.20
2018-08-03T17:27:34.024Z,30.60
2018-08-03T17:30:05.051Z,29.70
2018-08-03T17:32:35.236Z,30.10
2018-08-03T17:35:05.649Z,29.90
2018-08-03T17:37:35.807Z,30.30
2018-08-03T17:42:36.192Z,31.00
2018-08-03T17:45:06.494Z,30.00
2018-08-03T17:50:06.693Z,30.00
2018-08-03T17:52:36.917Z,31.10
2018-08-03T17:57:37.101Z,30.40
2018-08-03T18:00:07.984Z,30.80
2018-08-03T18:05:08.064Z,30.70
2018-08-03T18:07:38.424Z,30.60
2018-08-03T18:10:09.088Z,29.90
2018-08-03T18:12:39.543Z,30.10
2018-08-03T18:15:09.930Z,31.30
2018-08-03T18:17:41.009Z,30.10
2018-08-03T18:20:11.394Z,30.20
2018-08-03T18:22:41.618Z,29.80
2018-08-03T18:25:11.926Z,30.20
2018-08-03T18:27:42.149Z,29.90
2018-08-03T18:40:11.940Z,29.60
2018-08-03T18:42:42.131Z,29.60
2018-08-03T18:47:42.055Z,29.30
2018-08-03T18:52:42.223Z,29.20
2018-08-03T18:55:12.421Z,29.20
2018-08-03T18:57:42.582Z,29.10
2018-08-03T19:02:42.759Z,28.60
2018-08-03T19:07:42.797Z,28.00
2018-08-03T19:10:13.126Z,28.10
2018-08-03T19:12:43.317Z,27.80
2018-08-03T19:15:13.716Z,28.40
2018-08-03T19:17:43.887Z,28.30
2018-08-03T19:20:14.186Z,28.10
2018-08-03T19:22:44.448Z,27.30
2018-08-03T19:25:14.670Z,27.70
2018-08-03T19:27:44.885Z,27.60
2018-08-03T19:30:15.121Z,27.30
2018-08-03T19:32:45.435Z,26.90
2018-08-03T19:35:15.572Z,27.40
2018-08-03T19:37:45.896Z,27.10
2018-08-03T19:40:16.052Z,27.40
2018-08-03T19:50:16.145Z,27.40
2018-08-03T19:52:46.455Z,26.80
2018-08-03T19:55:17.508Z,27.10
2018-08-03T20:00:17.646Z,26.80
2018-08-03T20:05:17.746Z,26.60
2018-08-03T20:07:48.056Z,26.60
2018-08-03T20:10:18.360Z,27.00
2018-08-03T20:12:48.686Z,26.60
2018-08-03T20:17:48.748Z,26.20
2018-08-03T20:25:18.848Z,26.30
2018-08-03T20:27:49.112Z,26.20
2018-08-03T20:30:19.436Z,25.90
2018-08-03T20:32:49.704Z,26.00
2018-08-03T20:35:20.189Z,26.00
2018-08-03T20:37:50.440Z,26.00
2018-08-03T20:40:20.718Z,25.80
2018-08-03T20:42:51.142Z,25.80
2018-08-03T20:45:21.320Z,25.80
2018-08-03T20:47:51.494Z,25.70
2018-08-03T20:52:51.536Z,25.60
2018-08-03T20:55:21.754Z,25.60
2018-08-03T20:57:51.985Z,25.70
2018-08-03T21:02:53.313Z,26.10
2018-08-03T21:05:23.495Z,26.20
2018-08-03T21:10:24.051Z,26.00
2018-08-03T21:12:54.151Z,26.20
2018-08-03T21:15:24.470Z,26.60
2018-08-03T21:17:54.701Z,26.70
2018-08-03T21:29:53.750Z,26.80
2018-08-03T21:35:15.601Z,25.90
2018-08-03T21:37:45.901Z,26.60
2018-08-03T21:40:16.064Z,26.60
2018-08-03T21:42:51.969Z,27.30
2018-08-03T21:45:22.121Z,27.10
2018-08-03T21:47:53.635Z,25.90
2018-08-03T21:50:23.783Z,26.60
2018-08-03T21:52:53.907Z,26.70
2018-08-03T21:55:25.036Z,26.60
2018-08-03T21:57:55.566Z,26.70
2018-08-03T22:02:55.556Z,26.10
2018-08-03T22:10:25.232Z,26.30
2018-08-03T22:12:55.354Z,26.70
2018-08-03T22:15:26.611Z,26.50
2018-08-03T22:18:03.740Z,25.70
2018-08-03T22:20:35.095Z,26.70
2018-08-03T22:25:35.108Z,26.30
2018-08-03T22:28:05.367Z,26.60
2018-08-03T22:33:11.570Z,26.20
2018-08-03T22:35:41.780Z,25.60
2018-08-03T22:38:12.737Z,26.10
2018-08-03T22:43:30.811Z,26.60
2018-08-03T22:46:02.237Z,26.30
2018-08-03T22:53:42.592Z,25.90
2018-08-03T22:56:12.717Z,26.40
2018-08-03T22:58:43.089Z,26.50
2018-08-03T23:04:05.761Z,25.60
2018-08-03T23:09:22.796Z,26.00
2018-08-03T23:12:04.004Z,25.80
2018-08-03T23:14:34.129Z,26.20
2018-08-03T23:17:04.229Z,25.80
2018-08-03T23:19:34.308Z,26.10
2018-08-03T23:22:04.422Z,25.90
2018-08-03T23:24:34.512Z,25.70
2018-08-03T23:27:05.241Z,26.10
2018-08-03T23:29:35.990Z,25.60
2018-08-03T23:32:06.104Z,25.90
2018-08-03T23:34:36.197Z,25.80
2018-08-03T23:39:36.088Z,25.90
2018-08-03T23:42:06.352Z,25.50
2018-08-03T23:44:36.480Z,25.40
2018-08-03T23:49:36.401Z,25.50
2018-08-03T23:52:06.781Z,25.60
2018-08-03T23:59:54.951Z,25.30
